Time;durP1;ratioP1;P1;durP2;ratioP2;P2;SDS_P1;SDS_P2;PMS_P1;PMS_P2;Temp;Humidity;BMP_temperature;BMP_pressure;BME280_temperature;BME280_humidity;BME280_pressure;Samples;Min_cycle;Max_cycle;Signal;HPM_P1;HPM_P2
2023/10/05 00:01:07;;;;;;;16.20;2.55;;;;;;;12.84;100.00;102011.13;4917475;29;20020;-78
2023/10/05 00:03:38;;;;;;;12.00;2.55;;;;;;;12.89;100.00;102019.91;4930700;29;20395;-78
2023/10/05 00:09:05;;;;;;;18.67;2.53;;;;;;;12.88;100.00;102020.91;4916824;29;20407;-78
2023/10/05 00:11:36;;;;;;;15.10;3.67;;;;;;;12.90;100.00;102026.28;4917892;29;20023;-77
2023/10/05 00:14:12;;;;;;;16.23;2.88;;;;;;;12.87;100.00;102011.78;4932186;29;20047;-78
2023/10/05 00:16:44;;;;;;;15.05;2.67;;;;;;;12.85;100.00;102032.09;4928444;29;20019;-78
2023/10/05 00:19:11;;;;;;;13.00;2.35;;;;;;;12.88;100.00;102030.00;4933158;29;20485;-78
2023/10/05 00:21:48;;;;;;;17.20;3.22;;;;;;;12.81;100.00;102027.81;4916470;29;20050;-78
2023/10/05 00:24:18;;;;;;;13.00;2.53;;;;;;;12.90;100.00;102037.28;4916489;29;20039;-78
2023/10/05 00:26:49;;;;;;;8.30;2.13;;;;;;;12.88;100.00;102035.50;4900879;29;20107;-78
2023/10/05 00:31:41;;;;;;;21.95;3.72;;;;;;;12.83;100.00;102043.19;4926103;29;20532;-78
2023/10/05 00:36:59;;;;;;;9.63;2.80;;;;;;;12.89;100.00;102047.41;4918047;29;20529;-78
2023/10/05 00:39:26;;;;;;;10.88;2.45;;;;;;;12.86;100.00;102044.88;4928939;29;20059;-78
2023/10/05 00:44:30;;;;;;;11.98;2.28;;;;;;;12.81;100.00;102047.94;4930707;29;20031;-78
2023/10/05 00:47:00;;;;;;;26.35;3.15;;;;;;;12.87;100.00;102047.50;4930184;29;20031;-78
2023/10/05 00:49:29;;;;;;;14.77;2.55;;;;;;;12.84;100.00;102044.97;4931855;29;20039;-78
2023/10/05 00:52:15;;;;;;;14.32;2.67;;;;;;;12.83;100.00;102045.06;4932317;29;20032;-78
2023/10/05 00:54:51;;;;;;;15.45;2.28;;;;;;;12.92;100.00;102054.53;4901711;29;20170;-78
2023/10/05 00:57:22;;;;;;;15.35;3.47;;;;;;;12.86;100.00;102048.50;4931666;29;20023;-78
2023/10/05 00:59:56;;;;;;;7.63;2.40;;;;;;;12.83;100.00;102037.69;4928832;29;20391;-78
2023/10/05 01:02:22;;;;;;;10.70;2.53;;;;;;;12.92;100.00;102058.19;4931218;29;20039;-78
2023/10/05 01:05:00;;;;;;;13.55;2.30;;;;;;;12.94;100.00;102052.59;4913927;29;20838;-79
2023/10/05 01:07:43;;;;;;;13.18;2.55;;;;;;;12.82;100.00;102051.56;4914736;29;20066;-90
2023/10/05 01:12:38;;;;;;;14.77;1.98;;;;;;;12.88;100.00;102074.00;4936224;29;20043;-89
2023/10/05 01:15:06;;;;;;;8.82;2.38;;;;;;;12.88;100.00;102062.13;4889165;29;20038;-90
2023/10/05 01:17:35;;;;;;;10.07;1.88;;;;;;;12.90;100.00;102071.13;4920531;29;20067;-90
2023/10/05 01:20:12;;;;;;;10.98;2.60;;;;;;;12.91;100.00;102066.53;4902611;29;20044;-90
2023/10/05 01:22:41;;;;;;;13.60;2.08;;;;;;;12.88;100.00;102057.50;4937962;29;20031;-90
2023/10/05 01:25:08;;;;;;;13.02;2.38;;;;;;;12.92;100.00;102060.03;4904189;29;20047;-88
2023/10/05 01:27:36;;;;;;;13.45;2.65;;;;;;;12.93;100.00;102059.94;4903785;29;20134;-90
2023/10/05 01:30:21;;;;;;;21.25;3.28;;;;;;;12.93;100.00;102053.56;4926648;29;20051;-90
2023/10/05 01:32:49;;;;;;;12.52;2.20;;;;;;;12.90;100.00;102054.66;4894179;29;20032;-89
2023/10/05 01:35:20;;;;;;;18.65;3.10;;;;;;;12.90;100.00;102056.53;4933122;29;20063;-88
2023/10/05 01:37:53;;;;;;;11.98;2.30;;;;;;;12.96;100.00;102056.09;4913494;29;20111;-88
2023/10/05 01:42:47;;;;;;;14.20;2.25;;;;;;;12.92;100.00;102051.78;4914896;29;20516;-88
2023/10/05 01:45:21;;;;;;;17.35;2.35;;;;;;;12.89;100.00;102058.41;4904055;29;20039;-89
2023/10/05 01:47:46;;;;;;;12.93;2.17;;;;;;;12.88;100.00;102051.13;4906970;29;20051;-90
2023/10/05 01:50:19;;;;;;;13.88;2.10;;;;;;;12.93;100.00;102050.81;4919226;29;20052;-89
2023/10/05 01:53:06;;;;;;;14.77;3.95;;;;;;;12.85;100.00;102045.84;4915121;29;20043;-89
2023/10/05 01:55:40;;;;;;;11.27;2.08;;;;;;;12.84;100.00;102041.34;4923411;29;20062;-88
2023/10/05 01:58:07;;;;;;;12.35;2.25;;;;;;;12.82;100.00;102038.72;4919779;29;20059;-89
2023/10/05 02:00:37;;;;;;;12.45;3.30;;;;;;;12.87;100.00;102024.63;4921142;29;20027;-89
2023/10/05 02:03:06;;;;;;;14.48;2.50;;;;;;;12.85;100.00;102023.84;4904862;29;20036;-89
2023/10/05 02:05:33;;;;;;;17.05;2.58;;;;;;;12.87;100.00;102022.78;4900987;29;20403;-89
2023/10/05 02:07:59;;;;;;;8.02;2.05;;;;;;;12.82;100.00;102032.31;4896861;29;20042;-88
2023/10/05 02:10:25;;;;;;;11.50;1.90;;;;;;;12.90;100.00;102029.91;4891931;29;20028;-89
2023/10/05 02:12:54;;;;;;;12.02;2.00;;;;;;;12.88;100.00;102029.13;4890033;29;20043;-88
2023/10/05 02:15:21;;;;;;;16.10;2.10;;;;;;;12.82;100.00;102026.81;4921941;29;20031;-90
2023/10/05 02:17:49;;;;;;;12.52;2.10;;;;;;;12.82;100.00;102026.81;4922212;29;20035;-88
2023/10/05 02:20:56;;;;;;;5.55;2.22;;;;;;;12.85;100.00;102026.59;4925467;29;20047;-89
2023/10/05 02:23:15;;;;;;;13.70;2.38;;;;;;;12.84;100.00;102033.09;4917682;29;20039;-89
2023/10/05 02:25:42;;;;;;;17.83;1.83;;;;;;;12.85;100.00;102024.75;4905151;29;20027;-89
2023/10/05 02:28:08;;;;;;;23.65;2.22;;;;;;;12.81;100.00;102027.81;4907203;29;20036;-88
2023/10/05 02:30:33;;;;;;;16.95;3.17;;;;;;;12.76;100.00;102019.03;4906805;29;20044;-88
2023/10/05 02:32:59;;;;;;;12.30;1.70;;;;;;;12.73;100.00;102027.47;4934687;29;20617;-88
2023/10/05 02:35:33;;;;;;;10.73;2.05;;;;;;;12.79;100.00;102024.28;4893257;29;20064;-88
2023/10/05 02:37:59;;;;;;;17.58;2.50;;;;;;;12.79;100.00;102018.78;4913428;29;20032;-88
2023/10/05 02:40:35;;;;;;;14.02;2.22;;;;;;;12.74;100.00;102021.88;4930308;29;20095;-89
2023/10/05 02:43:03;;;;;;;13.52;2.13;;;;;;;12.69;100.00;102021.28;4930296;29;20038;-88
2023/10/05 02:45:32;;;;;;;15.10;3.13;;;;;;;12.67;100.00;102009.53;4918614;29;20425;-89
2023/10/05 02:47:57;;;;;;;9.98;1.85;;;;;;;12.65;100.00;102023.38;4902960;29;20046;-89
2023/10/05 02:50:23;;;;;;;18.30;2.80;;;;;;;12.68;100.00;102025.03;4921985;29;20032;-89
2023/10/05 02:52:48;;;;;;;16.90;2.92;;;;;;;12.66;100.00;102016.03;4915414;29;20027;-88
2023/10/05 02:55:14;;;;;;;10.57;2.67;;;;;;;12.60;100.00;102013.69;4934461;29;20039;-89
2023/10/05 02:57:41;;;;;;;8.52;1.52;;;;;;;12.64;100.00;102005.16;4948411;29;20031;-89
2023/10/05 03:00:11;;;;;;;8.85;2.03;;;;;;;12.56;100.00;102007.53;4917870;29;20043;-89
2023/10/05 03:02:45;;;;;;;6.47;1.85;;;;;;;12.53;100.00;102017.84;4932029;29;20032;-90
2023/10/05 03:05:11;;;;;;;18.60;2.22;;;;;;;12.50;100.00;102013.44;4904593;29;20121;-88
2023/10/05 03:07:40;;;;;;;15.65;2.28;;;;;;;12.48;100.00;102007.19;4916466;29;20035;-89
2023/10/05 03:10:07;;;;;;;12.07;2.42;;;;;;;12.50;100.00;101996.97;4918317;29;20028;-89
2023/10/05 03:12:32;;;;;;;12.68;2.05;;;;;;;12.44;100.00;102003.75;4902877;29;20035;-88
2023/10/05 03:15:04;;;;;;;12.23;3.28;;;;;;;12.45;100.00;101999.16;4949775;29;20023;-88
2023/10/05 03:17:31;;;;;;;15.68;2.17;;;;;;;12.46;100.00;101996.31;4933648;29;20110;-89
2023/10/05 03:19:58;;;;;;;8.32;2.17;;;;;;;12.50;100.00;102005.22;4903403;29;20086;-89
2023/10/05 03:22:23;;;;;;;14.55;2.28;;;;;;;12.56;100.00;102002.06;4917378;29;20135;-89
2023/10/05 03:24:49;;;;;;;13.27;2.20;;;;;;;12.50;100.00;101999.72;4918572;29;20060;-89
2023/10/05 03:27:16;;;;;;;11.00;1.92;;;;;;;12.52;100.00;102005.09;4918040;29;20224;-77
2023/10/05 03:29:45;;;;;;;11.05;2.22;;;;;;;12.47;100.00;101997.19;4927252;29;20036;-77
2023/10/05 03:34:37;;;;;;;13.48;1.92;;;;;;;12.54;100.00;101995.75;4930442;29;20087;-77
2023/10/05 03:37:13;;;;;;;13.32;2.13;;;;;;;12.44;100.00;102000.13;4914751;29;20020;-77
2023/10/05 03:42:23;;;;;;;13.18;2.13;;;;;;;12.40;100.00;102001.34;4931820;29;20626;-77
2023/10/05 03:45:03;;;;;;;15.52;2.05;;;;;;;12.41;100.00;102000.34;4914566;29;20126;-77
2023/10/05 03:47:28;;;;;;;10.70;2.00;;;;;;;12.41;100.00;102012.22;4932006;29;20099;-76
2023/10/05 03:49:57;;;;;;;4.97;1.88;;;;;;;12.44;100.00;102001.00;4914343;29;20167;-77
2023/10/05 03:52:33;;;;;;;14.45;2.20;;;;;;;12.37;100.00;101998.81;4916883;29;20106;-77
2023/10/05 03:55:09;;;;;;;18.40;3.85;;;;;;;12.34;100.00;102001.75;4933375;29;20115;-76
2023/10/05 03:57:35;;;;;;;15.95;3.00;;;;;;;12.29;100.00;102002.94;4915579;29;20083;-77
2023/10/05 04:00:17;;;;;;;10.25;2.20;;;;;;;12.30;100.00;102006.59;4916742;29;20098;-77
2023/10/05 04:02:43;;;;;;;17.85;3.95;;;;;;;12.24;100.00;102005.13;4932917;29;20409;-79
2023/10/05 04:05:10;;;;;;;13.40;2.22;;;;;;;12.26;100.00;102005.88;4930692;29;20028;-76
2023/10/05 04:07:36;;;;;;;14.15;1.95;;;;;;;12.29;100.00;102007.56;4931138;29;20036;-77
2023/10/05 04:10:03;;;;;;;15.68;2.72;;;;;;;12.20;100.00;102016.41;4914198;29;20203;-77
2023/10/05 04:12:32;;;;;;;13.70;1.92;;;;;;;12.17;100.00;101995.53;4931431;29;20067;-77
2023/10/05 04:15:03;;;;;;;18.00;3.00;;;;;;;12.22;100.00;102001.59;4914695;29;20509;-77
2023/10/05 04:17:29;;;;;;;13.48;1.92;;;;;;;12.20;100.00;102000.84;4928221;29;20032;-78
2023/10/05 04:19:54;;;;;;;13.82;2.58;;;;;;;12.14;100.00;101987.50;4920765;29;20038;-76
2023/10/05 04:22:20;;;;;;;19.33;2.72;;;;;;;12.17;100.00;101989.16;4900532;29;20052;-76
2023/10/05 04:24:45;;;;;;;12.40;2.47;;;;;;;12.13;100.00;101988.50;4899257;29;20075;-76
2023/10/05 04:27:12;;;;;;;19.58;2.47;;;;;;;12.08;100.00;101998.91;4930878;29;20027;-77
2023/10/05 04:29:38;;;;;;;11.57;2.75;;;;;;;12.09;100.00;101998.81;4915999;29;20098;-79
2023/10/05 04:32:06;;;;;;;10.52;2.75;;;;;;;12.06;100.00;102001.75;4916173;29;20506;-78
2023/10/05 04:34:32;;;;;;;15.88;3.40;;;;;;;12.01;100.00;101997.56;4933247;29;20039;-78
2023/10/05 04:36:59;;;;;;;13.15;2.47;;;;;;;11.97;100.00;101996.00;4917189;29;20039;-83
2023/10/05 04:39:29;;;;;;;16.73;2.67;;;;;;;12.01;100.00;102003.06;4916287;29;20039;-85
2023/10/05 04:41:56;;;;;;;12.45;2.78;;;;;;;12.03;100.00;102010.19;4916078;29;20027;-83
2023/10/05 04:44:23;;;;;;;14.18;2.72;;;;;;;11.99;100.00;102007.78;4931282;29;20066;-83
2023/10/05 04:46:49;;;;;;;16.33;2.95;;;;;;;11.97;100.00;102016.09;4932617;29;20032;-85
2023/10/05 04:49:19;;;;;;;15.88;2.40;;;;;;;11.97;100.00;102009.72;4916797;29;20040;-86
2023/10/05 04:51:45;;;;;;;13.90;2.83;;;;;;;11.91;100.00;102003.66;4931970;29;20055;-84
2023/10/05 04:54:12;;;;;;;15.30;2.45;;;;;;;11.98;100.00;102012.34;4929116;29;20028;-84
2023/10/05 04:56:54;;;;;;;14.10;2.70;;;;;;;11.91;100.00;102005.50;4916306;29;20020;-84
2023/10/05 04:59:36;;;;;;;11.68;2.42;;;;;;;11.90;100.00;102014.69;4918730;29;20046;-83
2023/10/05 05:02:35;;;;;;;19.50;3.20;;;;;;;11.80;100.00;102006.19;4933897;29;20035;-84
2023/10/05 05:07:45;;;;;;;14.40;3.10;;;;;;;11.83;100.00;102002.38;4917984;29;20045;-84
2023/10/05 05:10:11;;;;;;;14.10;3.13;;;;;;;11.79;100.00;101996.22;4900568;29;20440;-84
2023/10/05 05:12:38;;;;;;;14.55;3.65;;;;;;;11.72;100.00;102003.97;4932632;29;20039;-83
2023/10/05 05:15:05;;;;;;;16.38;3.78;;;;;;;11.75;100.00;102005.63;4883980;29;20031;-83
2023/10/05 05:17:32;;;;;;;13.50;3.58;;;;;;;11.73;100.00;101996.63;4902510;29;20058;-83
2023/10/05 05:19:58;;;;;;;13.02;3.22;;;;;;;11.72;100.00;101995.75;4935642;29;20043;-84
2023/10/05 05:22:24;;;;;;;17.75;3.78;;;;;;;11.75;100.00;102000.13;4913763;29;20041;-83
2023/10/05 05:24:50;;;;;;;21.77;3.83;;;;;;;11.73;100.00;102002.97;4903139;29;20031;-83
2023/10/05 05:29:47;;;;;;;11.70;3.67;;;;;;;11.72;100.00;102009.47;4932910;29;20083;-83
2023/10/05 05:32:13;;;;;;;19.65;4.85;;;;;;;11.75;100.00;102006.50;4925550;29;20102;-83
2023/10/05 05:34:44;;;;;;;13.07;3.60;;;;;;;11.69;100.00;102003.25;4916377;29;20110;-83
2023/10/05 05:37:14;;;;;;;18.10;3.38;;;;;;;11.71;100.00;102004.94;4912365;29;20087;-82
2023/10/05 05:39:40;;;;;;;16.48;4.10;;;;;;;11.73;100.00;102008.47;4914430;29;20405;-83
2023/10/05 05:42:14;;;;;;;17.02;3.60;;;;;;;11.76;100.00;102012.88;4930725;29;20024;-83
2023/10/05 05:44:43;;;;;;;21.98;4.00;;;;;;;11.75;100.00;102011.09;4911915;29;20462;-83
2023/10/05 05:47:14;;;;;;;14.75;4.05;;;;;;;11.73;100.00;102018.56;4898892;29;20038;-76
2023/10/05 05:49:41;;;;;;;19.27;3.28;;;;;;;11.79;100.00;102029.16;4928384;29;20043;-76
2023/10/05 05:52:08;;;;;;;16.75;3.65;;;;;;;11.78;100.00;102036.47;4911310;29;20187;-76
2023/10/05 05:54:37;;;;;;;13.00;3.00;;;;;;;11.82;100.00;102037.16;4913582;29;20031;-76
2023/10/05 05:57:06;;;;;;;16.70;3.47;;;;;;;11.77;100.00;102042.97;4928386;29;20032;-76
2023/10/05 05:59:34;;;;;;;19.90;3.58;;;;;;;11.84;100.00;102043.44;4912241;29;20036;-76
2023/10/05 06:02:01;;;;;;;16.80;3.67;;;;;;;11.87;100.00;102051.47;4914227;29;20038;-76
2023/10/05 06:04:28;;;;;;;21.70;3.85;;;;;;;11.81;100.00;102049.13;4911470;29;20395;-76
2023/10/05 06:06:53;;;;;;;19.30;3.90;;;;;;;11.87;100.00;102040.50;4912566;29;20036;-76
2023/10/05 06:09:22;;;;;;;11.88;3.53;;;;;;;11.90;100.00;102044.88;4929515;29;20055;-75
2023/10/05 06:11:50;;;;;;;15.68;3.10;;;;;;;12.00;100.00;102050.69;4882751;29;20066;-75
2023/10/05 06:14:18;;;;;;;11.50;3.35;;;;;;;12.02;100.00;102046.88;4930176;29;20118;-76
2023/10/05 06:16:45;;;;;;;14.20;3.13;;;;;;;12.06;100.00;102048.41;4927827;29;20087;-75
2023/10/05 06:19:11;;;;;;;13.52;3.50;;;;;;;12.07;100.00;102050.19;4927093;29;20035;-75
2023/10/05 06:21:36;;;;;;;14.43;3.55;;;;;;;12.10;100.00;102052.75;4898934;29;20119;-76
2023/10/05 06:24:02;;;;;;;8.43;2.85;;;;;;;12.16;100.00;102048.69;4914159;29;20059;-77
2023/10/05 06:26:29;;;;;;;13.63;3.03;;;;;;;12.16;100.00;102047.81;4912736;29;20065;-75
2023/10/05 06:28:55;;;;;;;16.77;2.78;;;;;;;12.20;100.00;102055.75;4928536;29;20076;-76
2023/10/05 06:31:22;;;;;;;13.35;3.55;;;;;;;12.22;100.00;102048.28;4923335;29;20151;-75
2023/10/05 06:33:48;;;;;;;20.08;3.45;;;;;;;12.29;100.00;102052.38;4929409;29;20121;-76
2023/10/05 06:36:14;;;;;;;17.13;3.40;;;;;;;12.34;100.00;102059.44;4944867;28;20027;-77
2023/10/05 06:38:39;;;;;;;15.77;3.13;;;;;;;12.33;100.00;102066.81;4913789;29;20040;-77
2023/10/05 06:41:05;;;;;;;17.83;3.90;;;;;;;12.35;100.00;102064.81;4927482;29;20035;-77
2023/10/05 06:43:35;;;;;;;26.27;3.80;;;;;;;12.41;100.00;102064.41;4931958;29;20027;-77
2023/10/05 06:46:14;;;;;;;11.02;3.13;;;;;;;12.40;100.00;102062.63;4907896;29;20032;-76
2023/10/05 06:48:40;;;;;;;14.18;2.88;;;;;;;12.44;100.00;102068.81;4929033;29;20069;-75
2023/10/05 06:51:07;;;;;;;15.00;2.85;;;;;;;12.47;100.00;102074.09;4930010;29;20031;-75
2023/10/05 06:53:32;;;;;;;16.70;3.45;;;;;;;12.49;100.00;102074.88;4931528;29;20027;-76
2023/10/05 06:55:58;;;;;;;12.13;3.30;;;;;;;12.47;100.00;102076.84;4931740;29;20031;-75
2023/10/05 06:58:24;;;;;;;14.40;3.28;;;;;;;12.64;100.00;102084.84;4930195;29;20039;-75
2023/10/05 07:00:52;;;;;;;15.77;3.83;;;;;;;12.68;100.00;102085.50;4931012;29;20028;-76
2023/10/05 07:03:17;;;;;;;11.80;3.47;;;;;;;12.69;100.00;102090.88;4925209;29;20059;-75
2023/10/05 07:05:42;;;;;;;13.65;3.38;;;;;;;12.75;100.00;102091.44;4930175;29;20482;-75
2023/10/05 07:08:08;;;;;;;15.85;3.00;;;;;;;12.73;100.00;102096.19;4946757;29;20095;-75
2023/10/05 07:10:35;;;;;;;22.92;4.25;;;;;;;12.68;100.00;102100.09;4916175;29;20146;-76
2023/10/05 07:13:01;;;;;;;19.60;3.40;;;;;;;12.75;100.00;102114.31;4935159;29;20027;-75
2023/10/05 07:15:28;;;;;;;16.83;3.15;;;;;;;12.73;100.00;102107.19;4934859;29;20028;-75
2023/10/05 07:17:55;;;;;;;17.17;3.28;;;;;;;12.72;100.00;102099.91;4920654;29;20031;-75
2023/10/05 07:20:20;;;;;;;12.45;2.88;;;;;;;12.80;100.00;102098.38;4951773;29;20031;-75
2023/10/05 07:22:47;;;;;;;14.77;3.10;;;;;;;12.81;100.00;102110.28;4913400;29;20027;-75
2023/10/05 07:25:14;;;;;;;22.58;3.65;;;;;;;12.82;100.00;102103.78;4934402;29;20035;-75
2023/10/05 07:27:41;;;;;;;18.92;3.33;;;;;;;12.88;100.00;102112.47;4935121;29;20375;-76
2023/10/05 07:30:10;;;;;;;16.75;2.80;;;;;;;12.97;100.00;102113.72;4935251;29;20036;-75
2023/10/05 07:32:37;;;;;;;15.43;2.55;;;;;;;12.98;100.00;102114.59;4936644;29;20036;-75
2023/10/05 07:35:05;;;;;;;11.18;2.88;;;;;;;13.00;100.00;102121.78;4934425;29;20032;-75
2023/10/05 07:37:31;;;;;;;18.17;3.25;;;;;;;13.04;100.00;102122.44;4936132;29;20393;-75
2023/10/05 07:39:58;;;;;;;19.80;3.45;;;;;;;13.15;100.00;102129.91;4936499;29;20032;-75
2023/10/05 07:42:24;;;;;;;14.63;3.47;;;;;;;13.24;100.00;102135.66;4888733;29;20036;-75
2023/10/05 07:44:50;;;;;;;13.88;2.95;;;;;;;13.25;100.00;102142.06;4932087;29;20028;-75
2023/10/05 07:47:16;;;;;;;22.48;3.55;;;;;;;13.34;100.00;102141.44;4930242;29;20067;-75
2023/10/05 07:49:41;;;;;;;15.45;2.67;;;;;;;13.42;100.00;102146.41;4920181;29;20425;-76
2023/10/05 07:52:09;;;;;;;9.25;2.72;;;;;;;13.33;100.00;102145.19;4919586;29;20460;-75
2023/10/05 07:54:38;;;;;;;11.30;2.85;;;;;;;13.56;100.00;102148.16;4935533;29;20129;-75
2023/10/05 07:57:10;;;;;;;14.32;2.72;;;;;;;13.60;100.00;102147.84;4936265;29;20039;-75
2023/10/05 07:59:43;;;;;;;17.20;3.13;;;;;;;13.67;100.00;102144.66;4918958;29;20047;-75
2023/10/05 08:02:13;;;;;;;10.52;2.80;;;;;;;13.90;100.00;102154.00;4918548;29;20023;-75
2023/10/05 08:04:39;;;;;;;14.13;2.80;;;;;;;13.84;100.00;102148.94;4936463;29;20027;-75
2023/10/05 08:07:04;;;;;;;11.70;3.33;;;;;;;13.90;100.00;102148.50;4919136;29;20493;-75
2023/10/05 08:09:30;;;;;;;15.38;3.40;;;;;;;14.25;100.00;102147.78;4917839;29;20063;-75
2023/10/05 08:11:59;;;;;;;13.25;3.20;;;;;;;14.46;100.00;102164.59;4933581;29;20027;-75
2023/10/05 08:14:25;;;;;;;14.80;3.17;;;;;;;14.37;100.00;102162.53;4919548;29;20099;-75
2023/10/05 08:16:51;;;;;;;16.00;3.83;;;;;;;14.66;100.00;102165.91;4935815;29;20430;-75
2023/10/05 08:19:19;;;;;;;12.68;3.58;;;;;;;14.87;100.00;102160.63;4936064;29;20036;-75
2023/10/05 08:21:45;;;;;;;16.17;3.63;;;;;;;14.94;100.00;102169.28;4935559;29;20028;-76
2023/10/05 08:24:11;;;;;;;11.77;3.65;;;;;;;14.93;100.00;102157.41;4919547;29;20474;-75
2023/10/05 08:26:39;;;;;;;14.55;2.78;;;;;;;15.27;100.00;102163.06;4932229;29;20031;-76
2023/10/05 08:29:06;;;;;;;14.65;2.85;;;;;;;15.25;100.00;102160.44;4915109;29;20036;-76
2023/10/05 08:31:32;;;;;;;16.48;3.30;;;;;;;15.22;100.00;102165.31;4934915;29;20098;-76
2023/10/05 08:34:09;;;;;;;9.05;2.53;;;;;;;15.04;100.00;102167.63;4918788;29;20024;-75
2023/10/05 08:36:34;;;;;;;9.63;2.70;;;;;;;15.29;100.00;102174.84;4919590;29;20031;-75
2023/10/05 08:39:00;;;;;;;17.48;2.50;;;;;;;15.38;100.00;102174.16;4918554;29;20024;-75
2023/10/05 08:41:32;;;;;;;12.95;2.55;;;;;;;15.47;100.00;102171.66;4917529;29;20375;-75
2023/10/05 08:43:59;;;;;;;17.50;2.63;;;;;;;15.48;100.00;102178.91;4935866;29;20099;-75
2023/10/05 08:46:27;;;;;;;13.35;3.15;;;;;;;15.15;100.00;102184.22;4915829;29;20055;-75
2023/10/05 08:48:55;;;;;;;19.02;2.65;;;;;;;15.32;100.00;102185.66;4934507;29;20118;-75
2023/10/05 08:51:24;;;;;;;11.90;2.20;;;;;;;15.53;100.00;102182.22;4918846;29;20058;-75
2023/10/05 08:53:54;;;;;;;18.90;3.08;;;;;;;15.49;100.00;102178.81;4910606;29;20103;-75
2023/10/05 08:56:21;;;;;;;12.73;2.33;;;;;;;15.28;100.00;102172.22;4918097;29;20174;-75
2023/10/05 08:58:47;;;;;;;14.48;2.30;;;;;;;15.27;100.00;102181.50;4933978;29;20032;-75
2023/10/05 09:01:30;;;;;;;11.05;2.20;;;;;;;15.20;100.00;102186.59;4935691;29;20083;-75
2023/10/05 09:04:01;;;;;;;19.85;4.28;;;;;;;15.27;100.00;102192.53;4918142;29;20042;-75
2023/10/05 09:06:28;;;;;;;13.60;2.15;;;;;;;15.25;100.00;102193.53;4929147;29;20030;-76
2023/10/05 09:09:01;;;;;;;14.10;2.40;;;;;;;15.37;100.00;102194.44;4916101;29;20071;-75
2023/10/05 09:11:36;;;;;;;;;;;;;;;15.44;100.00;102201.25;4903175;29;20513;-75
2023/10/05 09:14:13;;;;;;;15.85;3.10;;;;;;;15.50;100.00;102207.31;4935043;29;20293;-75
2023/10/05 09:16:43;;;;;;;13.98;2.10;;;;;;;15.44;100.00;102205.91;4935438;29;20545;-75
2023/10/05 09:19:17;;;;;;;11.02;2.33;;;;;;;15.63;100.00;102200.69;4934045;29;20031;-84
2023/10/05 09:21:50;;;;;;;10.77;1.85;;;;;;;15.42;100.00;102213.41;4932840;29;20027;-83
2023/10/05 09:24:21;;;;;;;13.10;2.50;;;;;;;15.57;100.00;102209.44;4935175;29;20038;-83
2023/10/05 09:27:09;;;;;;;10.15;1.98;;;;;;;15.62;100.00;102226.53;4918125;29;20027;-84
2023/10/05 09:29:36;;;;;;;16.30;2.35;;;;;;;15.54;100.00;102229.00;4917179;29;20114;-84
2023/10/05 09:32:11;;;;;;;8.25;1.98;;;;;;;15.58;100.00;102230.53;4930115;29;20039;-83
2023/10/05 09:34:49;;;;;;;12.63;2.30;;;;;;;15.59;100.00;102242.47;4932623;29;20058;-83
2023/10/05 09:37:16;;;;;;;9.02;1.98;;;;;;;15.60;100.00;102242.34;4943026;29;20038;-84
2023/10/05 09:39:43;;;;;;;12.82;2.20;;;;;;;15.61;100.00;102244.09;4933255;29;20507;-83
2023/10/05 09:42:16;;;;;;;15.63;2.72;;;;;;;15.49;100.00;102245.06;4934727;29;20094;-84
2023/10/05 09:44:54;;;;;;;11.80;2.13;;;;;;;15.49;100.00;102244.19;4934235;29;20629;-84
2023/10/05 09:47:40;;;;;;;14.30;1.90;;;;;;;15.48;100.00;102242.41;4934613;29;20490;-84
2023/10/05 09:50:10;;;;;;;10.68;1.95;;;;;;;15.48;100.00;102239.66;4930888;29;20055;-83
2023/10/05 09:52:43;;;;;;;12.65;2.30;;;;;;;15.46;100.00;102234.25;4934739;29;20032;-84
2023/10/05 09:55:12;;;;;;;14.00;2.25;;;;;;;15.51;100.00;102231.13;4932939;29;20032;-83
2023/10/05 09:57:46;;;;;;;10.82;2.03;;;;;;;15.88;100.00;102223.63;4929265;29;20037;-83
2023/10/05 10:00:27;;;;;;;13.07;1.88;;;;;;;15.78;100.00;102217.09;4932182;29;20031;-84
2023/10/05 10:03:03;;;;;;;15.10;2.40;;;;;;;15.71;100.00;102216.66;4932958;29;20031;-84
2023/10/05 10:05:42;;;;;;;12.90;2.10;;;;;;;15.87;100.00;102220.97;4932557;29;20151;-84
2023/10/05 10:08:14;;;;;;;24.45;2.95;;;;;;;15.83;100.00;102220.34;4932483;29;20074;-84
2023/10/05 10:10:51;;;;;;;9.38;2.20;;;;;;;15.77;100.00;102221.72;4932673;29;20032;-84
2023/10/05 10:13:21;;;;;;;15.95;3.13;;;;;;;15.74;100.00;102216.41;4934430;29;20519;-84
2023/10/05 10:15:49;;;;;;;16.83;2.08;;;;;;;15.93;100.00;102237.06;4934442;29;20059;-84
2023/10/05 10:18:15;;;;;;;15.32;2.33;;;;;;;16.02;100.00;102235.44;4934842;29;20038;-84
2023/10/05 10:20:48;;;;;;;16.20;1.85;;;;;;;15.79;100.00;102233.53;4932231;29;20397;-84
2023/10/05 10:23:35;;;;;;;12.93;2.33;;;;;;;15.85;100.00;102237.66;4930841;29;20095;-84
2023/10/05 10:26:16;;;;;;;7.75;2.03;;;;;;;15.82;100.00;102239.81;4934131;29;20078;-83
2023/10/05 10:31:17;;;;;;;13.77;2.35;;;;;;;16.12;100.00;102244.78;4933433;29;20106;-84
2023/10/05 10:33:50;;;;;;;8.90;1.95;;;;;;;16.06;100.00;102225.91;4933796;29;20044;-83
2023/10/05 10:36:19;;;;;;;10.27;1.92;;;;;;;15.93;100.00;102226.88;4917005;29;20526;-84
2023/10/05 10:38:52;;;;;;;13.15;2.10;;;;;;;16.21;100.00;102232.09;4916231;29;21005;-84
2023/10/05 10:41:21;;;;;;;16.73;2.35;;;;;;;16.10;100.00;102235.72;4932681;29;20035;-84
2023/10/05 10:43:53;;;;;;;12.18;2.05;;;;;;;16.40;100.00;102234.22;4915774;29;20024;-83
2023/10/05 10:46:28;;;;;;;10.60;1.90;;;;;;;16.23;100.00;102230.94;4934683;29;20058;-84
2023/10/05 10:48:57;;;;;;;11.20;2.17;;;;;;;16.50;100.00;102236.09;4920894;29;20690;-84
2023/10/05 10:51:37;;;;;;;6.70;2.10;;;;;;;16.35;100.00;102231.84;4920701;29;20031;-84
2023/10/05 10:54:13;;;;;;;11.65;1.73;;;;;;;16.56;100.00;102239.38;4935992;29;20087;-84
2023/10/05 10:56:42;;;;;;;11.35;2.25;;;;;;;16.54;100.00;102234.88;4939743;29;20156;-84
2023/10/05 10:59:26;;;;;;;13.00;2.75;;;;;;;16.49;100.00;102230.69;4937099;29;20099;-84
2023/10/05 11:01:59;;;;;;;15.27;2.13;;;;;;;16.75;100.00;102227.66;4919999;29;20028;-84
2023/10/05 11:04:33;;;;;;;10.23;1.90;;;;;;;16.78;100.00;102222.75;4936609;29;20027;-84
2023/10/05 11:07:01;;;;;;;14.60;2.28;;;;;;;16.77;100.00;102215.44;4935138;29;20118;-84
2023/10/05 11:09:34;;;;;;;10.00;3.05;;;;;;;16.96;100.00;102211.19;4935800;29;20035;-84
2023/10/05 11:12:08;;;;;;;14.63;2.03;;;;;;;17.33;100.00;102210.78;4921185;29;20505;-84
2023/10/05 11:14:35;;;;;;;8.60;2.03;;;;;;;17.17;100.00;102211.25;4936695;29;20043;-83
2023/10/05 11:17:00;;;;;;;9.20;2.00;;;;;;;17.19;100.00;102207.31;4934875;29;20043;-84
2023/10/05 11:19:39;;;;;;;18.75;2.22;;;;;;;17.55;100.00;102220.91;4918843;29;20043;-84
2023/10/05 11:22:10;;;;;;;13.50;2.05;;;;;;;17.68;100.00;102215.16;4920014;29;20027;-84
2023/10/05 11:25:00;;;;;;;11.93;2.17;;;;;;;17.95;100.00;102209.09;4904322;29;20042;-84
2023/10/05 11:27:25;;;;;;;12.55;2.28;;;;;;;17.88;100.00;102205.13;4935528;29;20478;-84
2023/10/05 11:29:55;;;;;;;18.42;2.70;;;;;;;18.09;100.00;102199.56;4902874;29;20043;-83
2023/10/05 11:32:25;;;;;;;9.93;1.85;;;;;;;18.23;100.00;102201.06;4931500;29;20481;-84
2023/10/05 11:34:55;;;;;;;16.15;2.50;;;;;;;18.12;100.00;102204.84;4934668;29;20035;-84
2023/10/05 11:37:21;;;;;;;16.33;2.75;;;;;;;18.05;100.00;102204.47;4935767;29;20060;-84
2023/10/05 11:39:49;;;;;;;14.98;2.13;;;;;;;17.96;100.00;102202.56;4934002;29;20059;-84
2023/10/05 11:42:24;;;;;;;14.95;2.67;;;;;;;18.02;100.00;102207.56;4936432;29;20038;-84
2023/10/05 11:44:53;;;;;;;15.27;2.45;;;;;;;18.21;100.00;102195.66;4933286;29;20465;-83
2023/10/05 11:47:35;;;;;;;7.90;1.73;;;;;;;18.02;100.00;102192.78;4948312;29;20034;-84
2023/10/05 11:50:07;;;;;;;14.93;1.80;;;;;;;17.78;100.00;102193.94;4934537;29;20070;-84